createdAt,value
2019-02-06T00:02:06.863Z,77.07
2019-02-06T00:04:38.590Z,77.12
2019-02-06T00:07:10.376Z,76.57
2019-02-06T00:09:42.258Z,76.16
2019-02-06T00:12:14.135Z,75.32
2019-02-06T00:14:46.454Z,75.14
2019-02-06T00:17:18.197Z,75.33
2019-02-06T00:19:49.950Z,75.91
2019-02-06T00:22:21.672Z,76.13
2019-02-06T00:24:53.467Z,76.17
2019-02-06T00:27:25.554Z,76.05
2019-02-06T00:29:57.272Z,76.08
2019-02-06T00:32:28.989Z,75.59
2019-02-06T00:35:00.709Z,75.10
2019-02-06T00:37:33.369Z,75.00
2019-02-06T00:40:06.480Z,74.96
2019-02-06T00:42:38.367Z,76.22
2019-02-06T00:45:10.601Z,75.46
2019-02-06T00:47:42.473Z,75.80
2019-02-06T00:50:15.231Z,76.29
2019-02-06T00:52:47.105Z,77.19
2019-02-06T00:55:18.983Z,77.35
2019-02-06T00:57:50.788Z,76.28
2019-02-06T01:00:23.272Z,76.01
2019-02-06T01:02:55.311Z,76.30
2019-02-06T01:05:38.080Z,76.42
2019-02-06T01:08:00.759Z,76.63
2019-02-06T01:10:32.960Z,77.38
2019-02-06T01:13:05.041Z,77.50
2019-02-06T01:15:36.922Z,77.81
2019-02-06T01:18:09.043Z,77.53
2019-02-06T01:20:40.841Z,77.75
2019-02-06T01:23:12.738Z,76.88
2019-02-06T01:25:44.544Z,77.10
2019-02-06T01:28:16.441Z,77.35
2019-02-06T01:30:54.098Z,76.80
2019-02-06T01:33:25.972Z,76.80
2019-02-06T01:35:57.843Z,76.46
2019-02-06T01:38:29.655Z,76.28
2019-02-06T01:41:01.433Z,76.31
2019-02-06T01:43:33.296Z,76.72
2019-02-06T01:46:05.369Z,76.94
2019-02-06T01:48:37.159Z,77.32
2019-02-06T01:51:08.960Z,77.24
2019-02-06T01:53:40.810Z,77.62
2019-02-06T01:56:12.548Z,77.17
2019-02-06T01:58:44.437Z,76.94
2019-02-06T02:01:16.237Z,77.74
2019-02-06T02:03:48.098Z,78.08
2019-02-06T02:06:20.042Z,78.27
2019-02-06T02:09:01.523Z,78.53
2019-02-06T02:11:34.437Z,78.21
2019-02-06T02:14:06.958Z,77.91
2019-02-06T02:16:39.164Z,77.43
2019-02-06T02:19:12.232Z,77.28
2019-02-06T02:21:44.229Z,77.00
2019-02-06T02:24:16.166Z,78.30
2019-02-06T02:26:48.145Z,77.82
2019-02-06T02:29:20.070Z,78.03
2019-02-06T02:31:52.287Z,78.19
2019-02-06T02:34:24.213Z,77.65
2019-02-06T02:36:56.083Z,77.63
2019-02-06T02:39:28.027Z,77.42
2019-02-06T02:41:59.967Z,77.58
2019-02-06T02:44:31.942Z,77.90
2019-02-06T02:47:04.084Z,78.26
2019-02-06T02:49:36.276Z,78.80
2019-02-06T02:52:09.178Z,78.79
2019-02-06T02:54:41.526Z,79.40
2019-02-06T02:57:13.409Z,79.18
2019-02-06T02:59:45.345Z,78.71
2019-02-06T03:02:35.530Z,78.62
2019-02-06T03:05:12.769Z,78.88
2019-02-06T03:07:44.696Z,78.91
2019-02-06T03:10:16.830Z,78.81
2019-02-06T03:12:48.838Z,79.26
2019-02-06T03:15:20.730Z,79.09
2019-02-06T03:17:52.519Z,79.46
2019-02-06T03:20:24.395Z,79.25
2019-02-06T03:22:56.109Z,78.92
2019-02-06T03:25:27.908Z,79.09
2019-02-06T03:28:00.172Z,79.14
2019-02-06T03:30:32.110Z,78.49
2019-02-06T03:33:03.974Z,78.74
2019-02-06T03:35:35.764Z,79.18
2019-02-06T03:38:07.688Z,79.01
2019-02-06T03:40:39.720Z,79.45
2019-02-06T03:43:11.745Z,79.42
2019-02-06T03:45:43.689Z,79.62
2019-02-06T03:48:15.652Z,79.75
2019-02-06T03:50:47.619Z,79.73
2019-02-06T03:53:19.558Z,78.82
2019-02-06T03:55:51.602Z,78.87
2019-02-06T03:58:23.469Z,79.18
2019-02-06T04:00:55.349Z,79.41
2019-02-06T04:03:27.464Z,79.64
2019-02-06T04:05:59.426Z,79.18
2019-02-06T04:08:31.466Z,79.33
2019-02-06T04:11:03.474Z,79.38
2019-02-06T04:13:35.679Z,79.12
2019-02-06T04:16:07.630Z,79.06
2019-02-06T04:18:39.710Z,79.23
2019-02-06T04:21:12.155Z,79.52
2019-02-06T04:23:44.038Z,78.95
2019-02-06T04:26:16.212Z,78.88
2019-02-06T04:28:48.130Z,78.99
2019-02-06T04:31:20.383Z,79.03
2019-02-06T04:33:52.241Z,79.09
2019-02-06T04:36:24.203Z,79.31
2019-02-06T04:38:56.067Z,79.59
2019-02-06T04:41:27.995Z,79.48
2019-02-06T04:44:00.138Z,79.34
2019-02-06T04:46:31.985Z,79.09
2019-02-06T04:49:04.536Z,79.34
2019-02-06T04:51:36.390Z,79.36
2019-02-06T04:54:08.325Z,79.27
2019-02-06T04:56:40.370Z,79.32
2019-02-06T04:59:12.296Z,79.53
2019-02-06T05:01:44.237Z,79.58
2019-02-06T05:04:16.087Z,79.53
2019-02-06T05:06:48.048Z,79.75
2019-02-06T05:09:20.188Z,79.47
2019-02-06T05:11:52.380Z,78.92
2019-02-06T05:14:24.322Z,78.72
2019-02-06T05:16:56.504Z,78.49
2019-02-06T05:19:28.462Z,78.09
2019-02-06T05:22:00.842Z,78.61
2019-02-06T05:24:32.973Z,79.09
2019-02-06T05:27:04.939Z,78.40
2019-02-06T05:29:36.865Z,78.50
2019-02-06T05:32:08.747Z,79.06
2019-02-06T05:34:40.997Z,79.68
2019-02-06T05:37:13.257Z,79.83
2019-02-06T05:39:45.469Z,79.74
2019-02-06T05:42:17.501Z,79.97
2019-02-06T05:44:49.354Z,80.15
2019-02-06T05:47:21.922Z,79.60
2019-02-06T05:49:53.897Z,79.59
2019-02-06T05:52:26.048Z,79.07
2019-02-06T05:54:58.990Z,78.69
2019-02-06T05:57:31.436Z,79.58
2019-02-06T06:00:04.116Z,79.12
2019-02-06T06:02:36.447Z,79.03
2019-02-06T06:05:08.649Z,79.79
2019-02-06T06:07:45.186Z,79.87
2019-02-06T06:10:16.027Z,79.90
2019-02-06T06:12:48.300Z,79.08
2019-02-06T06:15:20.578Z,79.41
2019-02-06T06:17:52.662Z,78.96
2019-02-06T06:20:24.745Z,79.69
2019-02-06T06:22:57.018Z,79.75
2019-02-06T06:25:29.305Z,80.18
2019-02-06T06:28:01.273Z,80.19
2019-02-06T06:30:33.203Z,79.93
2019-02-06T06:33:05.397Z,79.26
2019-02-06T06:35:37.388Z,79.78
2019-02-06T06:38:09.515Z,80.15
2019-02-06T06:40:41.756Z,79.96
2019-02-06T06:43:16.315Z,80.05
2019-02-06T06:45:47.553Z,80.27
2019-02-06T06:48:19.529Z,80.49
2019-02-06T06:50:51.880Z,80.89
2019-02-06T06:53:23.955Z,80.46
2019-02-06T06:55:56.162Z,80.25
2019-02-06T06:58:28.266Z,79.99
2019-02-06T07:01:00.221Z,80.39
2019-02-06T07:03:32.390Z,80.62
2019-02-06T07:06:04.647Z,80.56
2019-02-06T07:08:36.662Z,80.79
2019-02-06T07:11:08.752Z,81.17
2019-02-06T07:13:40.858Z,81.50
2019-02-06T07:16:13.095Z,80.97
2019-02-06T07:18:45.056Z,81.22
2019-02-06T07:21:17.100Z,81.23
2019-02-06T07:23:49.151Z,81.27
2019-02-06T07:26:21.371Z,81.41
2019-02-06T07:28:53.587Z,81.01
2019-02-06T07:31:25.505Z,80.82
2019-02-06T07:33:57.413Z,80.53
2019-02-06T07:36:29.520Z,80.31
2019-02-06T07:39:01.499Z,79.96
2019-02-06T07:41:35.079Z,79.27
2019-02-06T07:44:07.133Z,79.00
2019-02-06T07:46:38.977Z,79.37
2019-02-06T07:49:12.395Z,79.64
2019-02-06T07:51:44.579Z,79.74
2019-02-06T07:54:16.635Z,79.69
2019-02-06T07:56:49.283Z,79.54
2019-02-06T07:59:21.384Z,79.39
2019-02-06T08:01:53.792Z,79.52
2019-02-06T08:04:25.759Z,79.55
2019-02-06T08:06:57.793Z,79.76
2019-02-06T08:09:29.862Z,79.87
2019-02-06T08:12:02.114Z,80.20
2019-02-06T08:14:34.149Z,80.17
2019-02-06T08:17:06.292Z,80.44
2019-02-06T08:19:38.234Z,80.14
2019-02-06T08:22:12.179Z,79.98
2019-02-06T08:24:44.493Z,80.29
2019-02-06T08:27:16.430Z,80.54
2019-02-06T08:29:48.633Z,80.24
2019-02-06T08:32:20.559Z,79.96
2019-02-06T08:34:52.509Z,80.25
2019-02-06T08:37:24.444Z,80.36
2019-02-06T08:39:56.461Z,80.41
2019-02-06T08:42:28.596Z,80.15
2019-02-06T08:45:00.465Z,80.01
2019-02-06T08:47:32.490Z,80.16
2019-02-06T08:50:05.384Z,79.92
2019-02-06T08:52:37.647Z,80.03
2019-02-06T08:55:13.645Z,79.93
2019-02-06T08:57:45.689Z,80.38
2019-02-06T09:00:22.513Z,79.98
2019-02-06T09:02:54.631Z,79.96
2019-02-06T09:05:26.572Z,79.97
2019-02-06T09:07:58.600Z,80.05
2019-02-06T09:10:31.026Z,80.09
2019-02-06T09:13:03.094Z,80.11
2019-02-06T09:15:35.118Z,79.65
2019-02-06T09:18:08.388Z,79.50
2019-02-06T09:20:40.384Z,79.52
2019-02-06T09:23:12.354Z,79.38
2019-02-06T09:25:44.292Z,79.06
2019-02-06T09:28:16.223Z,79.15
2019-02-06T09:30:48.565Z,79.13
2019-02-06T09:33:20.497Z,79.02
2019-02-06T09:35:52.369Z,78.81
2019-02-06T09:38:24.233Z,78.88
2019-02-06T09:40:56.207Z,78.77
2019-02-06T09:43:28.213Z,79.30
2019-02-06T09:46:00.356Z,78.89
2019-02-06T09:48:32.292Z,78.67
2019-02-06T09:51:04.331Z,78.07
2019-02-06T09:53:36.261Z,78.31
2019-02-06T09:56:08.382Z,78.39
2019-02-06T09:58:40.499Z,78.45
2019-02-06T10:01:12.473Z,78.80
2019-02-06T10:03:46.909Z,78.48
2019-02-06T10:06:18.041Z,78.09
2019-02-06T10:08:50.367Z,77.70
2019-02-06T10:11:22.258Z,77.88
2019-02-06T10:13:54.191Z,77.64
2019-02-06T10:16:26.151Z,77.23
2019-02-06T10:18:58.014Z,77.09
2019-02-06T10:21:30.515Z,77.54
2019-02-06T10:24:02.442Z,77.26
2019-02-06T10:26:34.415Z,76.93
2019-02-06T10:29:06.770Z,77.04
2019-02-06T10:31:38.967Z,77.17
2019-02-06T10:34:12.050Z,76.75
2019-02-06T10:36:44.298Z,76.35
2019-02-06T10:39:16.249Z,75.72
2019-02-06T10:41:48.348Z,76.43
2019-02-06T10:44:20.467Z,76.22
2019-02-06T10:46:52.833Z,76.13
2019-02-06T10:49:25.259Z,75.63
2019-02-06T10:51:57.536Z,75.72
2019-02-06T10:54:29.458Z,75.74
2019-02-06T10:57:01.655Z,75.30
2019-02-06T10:59:34.070Z,75.35
2019-02-06T11:02:06.245Z,76.26
2019-02-06T11:04:38.200Z,74.72
2019-02-06T11:07:11.550Z,75.07
2019-02-06T11:09:46.436Z,75.02
2019-02-06T11:12:17.287Z,74.62
2019-02-06T11:14:49.310Z,74.15
2019-02-06T11:17:21.187Z,75.04
2019-02-06T11:19:53.168Z,74.16
2019-02-06T11:22:25.213Z,74.07
2019-02-06T11:24:57.428Z,72.89
2019-02-06T11:27:29.681Z,73.62
2019-02-06T11:30:01.609Z,71.90
2019-02-06T11:32:34.661Z,72.35
2019-02-06T11:35:07.665Z,72.50
2019-02-06T11:37:39.733Z,71.56
2019-02-06T11:40:15.669Z,70.71
2019-02-06T11:42:47.708Z,72.20
2019-02-06T11:45:26.492Z,70.92
2019-02-06T11:47:58.582Z,71.35
2019-02-06T11:50:40.835Z,70.61
2019-02-06T11:53:22.802Z,71.00
2019-02-06T11:55:56.108Z,70.95
2019-02-06T11:58:28.202Z,70.37
2019-02-06T12:01:25.133Z,70.67
2019-02-06T12:03:57.340Z,70.34
2019-02-06T12:06:29.538Z,69.90
2019-02-06T12:09:01.592Z,69.96
2019-02-06T12:11:34.950Z,69.41
2019-02-06T12:14:06.884Z,69.66
2019-02-06T12:16:39.128Z,69.71
2019-02-06T12:19:11.601Z,69.30
2019-02-06T12:21:43.625Z,70.27
2019-02-06T12:24:15.722Z,69.84
2019-02-06T12:26:47.649Z,68.66
2019-02-06T12:29:19.797Z,68.84
2019-02-06T12:31:51.646Z,66.19
2019-02-06T12:34:23.832Z,66.70
2019-02-06T12:36:55.854Z,66.85
2019-02-06T12:39:27.964Z,67.83
2019-02-06T12:42:00.277Z,67.70
2019-02-06T12:44:32.215Z,67.67
2019-02-06T12:47:04.465Z,67.84
2019-02-06T12:49:36.417Z,67.80
2019-02-06T12:52:08.460Z,67.03
2019-02-06T12:54:40.409Z,66.29
2019-02-06T12:57:12.594Z,67.02
2019-02-06T12:59:44.537Z,67.23
2019-02-06T13:02:16.474Z,66.38
2019-02-06T13:04:48.413Z,65.40
2019-02-06T13:07:20.336Z,64.83
2019-02-06T13:09:52.631Z,64.74
2019-02-06T13:12:27.256Z,65.12
2019-02-06T13:14:58.400Z,64.83
2019-02-06T13:17:30.341Z,65.11
2019-02-06T13:20:02.289Z,64.30
2019-02-06T13:22:34.553Z,63.79
2019-02-06T13:25:07.980Z,62.72
2019-02-06T13:27:40.159Z,62.21
2019-02-06T13:30:17.777Z,62.56
2019-02-06T13:32:50.085Z,62.94
2019-02-06T13:35:21.934Z,63.23
2019-02-06T13:37:53.776Z,63.41
2019-02-06T13:40:27.050Z,61.54
2019-02-06T13:43:00.081Z,62.07
2019-02-06T13:45:39.263Z,60.89
2019-02-06T13:48:12.093Z,59.84
2019-02-06T13:50:44.192Z,60.37
2019-02-06T13:53:16.229Z,59.25
2019-02-06T13:55:48.375Z,60.29
2019-02-06T13:58:20.729Z,60.68
2019-02-06T14:00:52.992Z,61.38
2019-02-06T14:03:24.941Z,59.94
2019-02-06T14:05:56.946Z,61.32
2019-02-06T14:08:29.351Z,59.40
2019-02-06T14:11:01.262Z,59.45
2019-02-06T14:13:33.312Z,58.81
2019-02-06T14:16:06.438Z,59.70
2019-02-06T14:18:38.367Z,60.29
2019-02-06T14:21:10.590Z,59.58
2019-02-06T14:24:15.911Z,59.58
2019-02-06T14:27:24.543Z,58.04
2019-02-06T14:30:45.909Z,58.33
2019-02-06T14:34:19.306Z,59.17
2019-02-06T14:37:42.850Z,58.92
2019-02-06T14:41:08.266Z,57.07
2019-02-06T14:44:39.388Z,54.77
2019-02-06T14:47:31.955Z,57.84
2019-02-06T14:51:04.904Z,55.50
2019-02-06T14:54:24.862Z,55.83
2019-02-06T14:58:12.240Z,55.75
2019-02-06T15:01:24.024Z,55.66
2019-02-06T15:04:48.116Z,56.34
2019-02-06T15:08:42.719Z,56.00
2019-02-06T15:11:40.768Z,55.21
2019-02-06T15:14:56.529Z,55.96
2019-02-06T15:18:06.386Z,56.92
2019-02-06T15:21:36.397Z,57.02
2019-02-06T15:24:55.857Z,56.05
2019-02-06T15:28:33.615Z,56.66
2019-02-06T15:31:50.226Z,56.09
2019-02-06T15:35:29.913Z,57.36
2019-02-06T15:38:38.337Z,57.78
2019-02-06T15:41:41.386Z,60.62
2019-02-06T15:44:48.498Z,60.38
2019-02-06T15:48:10.947Z,61.28
2019-02-06T15:52:07.180Z,61.38
2019-02-06T15:55:13.276Z,61.97
2019-02-06T15:58:41.055Z,62.70
2019-02-06T16:01:56.407Z,62.78
2019-02-06T16:04:57.389Z,62.97
2019-02-06T16:08:37.194Z,63.98
2019-02-06T16:11:55.122Z,63.43
2019-02-06T16:14:52.103Z,63.96
2019-02-06T16:18:07.513Z,64.14
2019-02-06T16:21:34.900Z,64.30
2019-02-06T16:24:48.608Z,64.44
2019-02-06T16:27:57.375Z,65.27
2019-02-06T16:31:20.529Z,65.40
2019-02-06T16:34:37.931Z,65.33
2019-02-06T16:38:00.135Z,65.56
2019-02-06T16:41:31.819Z,65.99
2019-02-06T16:44:56.379Z,65.87
2019-02-06T16:48:06.971Z,66.90
2019-02-06T16:51:38.133Z,66.94
2019-02-06T16:55:22.496Z,67.75
2019-02-06T16:58:48.725Z,67.93
2019-02-06T17:02:12.676Z,68.60
2019-02-06T17:05:45.071Z,68.19
2019-02-06T17:09:44.884Z,67.55
2019-02-06T17:12:59.392Z,67.94
2019-02-06T17:16:37.873Z,67.64
2019-02-06T17:19:56.786Z,68.26
2019-02-06T17:23:16.452Z,68.72
2019-02-06T17:26:29.168Z,69.31
2019-02-06T17:29:26.892Z,69.83
2019-02-06T17:33:06.011Z,69.44
2019-02-06T17:35:58.581Z,69.28
2019-02-06T17:39:00.854Z,69.31
2019-02-06T17:42:03.543Z,71.43
2019-02-06T17:45:29.212Z,72.19
2019-02-06T17:48:49.788Z,72.12
2019-02-06T17:52:20.388Z,71.15
2019-02-06T17:55:27.512Z,71.18
2019-02-06T17:58:02.824Z,70.83
2019-02-06T18:00:57.622Z,70.72
2019-02-06T18:03:37.874Z,71.60
2019-02-06T18:06:10.078Z,71.14
2019-02-06T18:08:42.251Z,71.93
2019-02-06T18:11:14.430Z,71.34
2019-02-06T18:13:46.586Z,70.97
2019-02-06T18:16:21.359Z,71.15
2019-02-06T18:18:52.739Z,71.31
2019-02-06T18:21:24.795Z,72.04
2019-02-06T18:23:57.020Z,72.23
2019-02-06T18:26:29.492Z,71.95
2019-02-06T18:29:01.576Z,72.37
2019-02-06T18:31:33.524Z,72.40
2019-02-06T18:34:08.799Z,72.71
2019-02-06T18:36:40.755Z,72.54
2019-02-06T18:39:14.707Z,72.06
2019-02-06T18:41:47.006Z,71.96
2019-02-06T18:44:19.098Z,72.57
2019-02-06T18:46:54.935Z,72.96
2019-02-06T18:49:27.544Z,72.34
2019-02-06T18:52:00.034Z,72.50
2019-02-06T18:54:32.341Z,71.50
2019-02-06T18:57:04.407Z,70.78
2019-02-06T18:59:36.408Z,70.85
2019-02-06T19:02:08.829Z,70.52
2019-02-06T19:04:40.908Z,71.35
2019-02-06T19:07:13.205Z,71.71
2019-02-06T19:09:45.638Z,71.79
2019-02-06T19:12:17.640Z,71.79
2019-02-06T19:14:49.716Z,71.83
2019-02-06T19:17:21.717Z,72.44
2019-02-06T19:19:53.685Z,72.10
2019-02-06T19:22:25.636Z,72.93
2019-02-06T19:24:57.601Z,73.18
2019-02-06T19:27:29.580Z,73.23
2019-02-06T19:30:01.573Z,73.38
2019-02-06T19:32:33.878Z,73.06
2019-02-06T19:35:07.034Z,73.29
2019-02-06T19:37:39.203Z,73.82
2019-02-06T19:40:12.394Z,74.05
2019-02-06T19:42:44.308Z,74.16
2019-02-06T19:45:16.542Z,74.18
2019-02-06T19:47:48.639Z,74.25
2019-02-06T19:50:27.589Z,74.32
2019-02-06T19:52:59.972Z,74.61
2019-02-06T19:55:33.090Z,74.80
2019-02-06T19:58:05.646Z,74.92
2019-02-06T20:00:38.084Z,75.84
2019-02-06T20:03:10.578Z,75.71
2019-02-06T20:05:42.646Z,75.42
2019-02-06T20:08:14.958Z,75.77
2019-02-06T20:10:49.103Z,76.40
2019-02-06T20:13:21.023Z,77.49
2019-02-06T20:15:53.183Z,77.57
2019-02-06T20:18:25.200Z,77.56
2019-02-06T20:20:57.162Z,77.17
2019-02-06T20:23:29.412Z,76.26
2019-02-06T20:26:01.375Z,76.11
2019-02-06T20:28:33.356Z,75.21
2019-02-06T20:31:05.662Z,75.86
2019-02-06T20:33:38.601Z,76.19
2019-02-06T20:36:10.821Z,75.87
2019-02-06T20:38:42.787Z,75.06
2019-02-06T20:41:14.882Z,75.13
2019-02-06T20:43:47.375Z,75.88
2019-02-06T20:46:19.406Z,75.87
2019-02-06T20:48:51.289Z,76.21
2019-02-06T20:51:23.288Z,76.33
2019-02-06T20:53:55.275Z,75.92
2019-02-06T20:56:27.317Z,74.80
2019-02-06T20:58:59.311Z,74.28
2019-02-06T21:01:31.217Z,74.22
2019-02-06T21:04:03.310Z,74.22
2019-02-06T21:06:35.331Z,74.27
2019-02-06T21:09:14.878Z,73.79
2019-02-06T21:11:46.918Z,73.08
2019-02-06T21:14:18.953Z,73.01
2019-02-06T21:16:50.840Z,73.05
2019-02-06T21:19:22.900Z,73.08
2019-02-06T21:21:55.112Z,73.12
2019-02-06T21:24:27.089Z,74.07
2019-02-06T21:26:59.052Z,74.63
2019-02-06T21:29:31.263Z,74.73
2019-02-06T21:32:03.204Z,74.96
2019-02-06T21:34:35.708Z,75.43
2019-02-06T21:37:07.669Z,75.50
2019-02-06T21:39:39.597Z,75.70
2019-02-06T21:42:11.576Z,76.15
2019-02-06T21:44:43.553Z,75.20
2019-02-06T21:47:15.728Z,77.00
2019-02-06T21:49:47.723Z,77.28
2019-02-06T21:52:19.729Z,76.95
2019-02-06T21:54:52.118Z,76.83
2019-02-06T21:57:24.001Z,76.40
2019-02-06T21:59:56.437Z,75.76
2019-02-06T22:02:28.640Z,75.55
2019-02-06T22:05:00.598Z,74.83
2019-02-06T22:07:32.425Z,74.04
2019-02-06T22:10:05.179Z,73.77
2019-02-06T22:12:37.750Z,73.91
2019-02-06T22:15:24.002Z,74.28
2019-02-06T22:17:56.042Z,74.42
2019-02-06T22:20:28.626Z,74.48
2019-02-06T22:23:00.913Z,74.59
2019-02-06T22:25:33.049Z,74.74
2019-02-06T22:28:05.013Z,75.04
2019-02-06T22:30:37.053Z,75.02
2019-02-06T22:33:09.553Z,74.74
2019-02-06T22:35:41.761Z,74.95
2019-02-06T22:38:14.507Z,74.99
2019-02-06T22:40:46.927Z,74.42
2019-02-06T22:43:21.256Z,74.69
2019-02-06T22:45:53.418Z,74.50
2019-02-06T22:48:25.383Z,74.68
2019-02-06T22:50:57.314Z,75.29
2019-02-06T22:53:29.261Z,74.61
2019-02-06T22:56:01.160Z,74.47
2019-02-06T22:58:33.931Z,74.97
2019-02-06T23:01:40.448Z,74.24
2019-02-06T23:04:12.394Z,74.00
2019-02-06T23:06:44.536Z,75.42
2019-02-06T23:09:16.736Z,75.25
2019-02-06T23:11:48.923Z,74.90
2019-02-06T23:14:20.868Z,75.41
2019-02-06T23:16:52.730Z,75.03
2019-02-06T23:19:24.911Z,75.42
2019-02-06T23:21:56.883Z,75.72
2019-02-06T23:24:28.922Z,75.75
2019-02-06T23:27:00.842Z,75.86
2019-02-06T23:29:32.886Z,76.29
2019-02-06T23:32:05.083Z,76.93
2019-02-06T23:34:37.205Z,77.09
2019-02-06T23:37:11.409Z,76.92
2019-02-06T23:39:42.801Z,76.37
2019-02-06T23:42:14.923Z,76.39
2019-02-06T23:44:47.048Z,77.29
2019-02-06T23:47:18.973Z,77.07
2019-02-06T23:49:51.739Z,77.00
2019-02-06T23:52:23.935Z,76.91
2019-02-06T23:54:56.400Z,76.69
2019-02-06T23:57:28.267Z,76.99
